Homewood, California
Current Conditions -  °F | °C
As of 3:53 PM on Friday 24 Oct 2014 (Local Time) from KTVL Reporting Station
Clear Clear  
Wind Chill: 70°   Ceiling: Unl
Heat Index: 70°   Visibility: 10mi
Dew Point: 17°   Wind: 15mph
Humidity: 13%   Direction: 210°SSW
Pressure: 30.07"   Gusts: 28mph
Location:  39.09°N, 120.16°W
Report Text: KTVL 242253Z AUTO 21013G24KT 10SM CLR 21/M08 A3007 RMK AO2 PK WND 18031/2159 SLP142 T02111083
Loading
Personal Weather Stations






























Interactive Weather Map
Tropical Storm Tracking
New forecast layout! Learn more

10-Day Weather Forecast

Advertisements
Track Severe Weather on mobile